sensor_id;sensor_type;location;lat;lon;timestamp;P1;durP1;ratioP1;P2;durP2;ratioP2
41897;SDS011;27576;53.366;-1.498;2023-06-14T00:02:16;9.80;;;4.70;;
41897;SDS011;27576;53.366;-1.498;2023-06-14T00:04:41;11.27;;;5.10;;
41897;SDS011;27576;53.366;-1.498;2023-06-14T00:07:08;10.80;;;5.43;;
41897;SDS011;27576;53.366;-1.498;2023-06-14T00:09:33;13.77;;;5.78;;
41897;SDS011;27576;53.366;-1.498;2023-06-14T00:11:59;13.05;;;5.47;;
41897;SDS011;27576;53.366;-1.498;2023-06-14T00:14:25;11.43;;;5.50;;
41897;SDS011;27576;53.366;-1.498;2023-06-14T00:16:50;10.68;;;5.88;;
41897;SDS011;27576;53.366;-1.498;2023-06-14T00:19:17;8.32;;;5.38;;
41897;SDS011;27576;53.366;-1.498;2023-06-14T00:21:43;11.48;;;5.70;;
41897;SDS011;27576;53.366;-1.498;2023-06-14T00:24:08;13.82;;;5.70;;
41897;SDS011;27576;53.366;-1.498;2023-06-14T00:26:34;10.00;;;5.20;;
41897;SDS011;27576;53.366;-1.498;2023-06-14T00:28:59;13.50;;;5.82;;
41897;SDS011;27576;53.366;-1.498;2023-06-14T00:31:25;11.65;;;4.95;;
41897;SDS011;27576;53.366;-1.498;2023-06-14T00:33:50;14.93;;;5.20;;
41897;SDS011;27576;53.366;-1.498;2023-06-14T00:36:15;13.68;;;5.72;;
41897;SDS011;27576;53.366;-1.498;2023-06-14T00:38:41;10.90;;;6.38;;
41897;SDS011;27576;53.366;-1.498;2023-06-14T00:41:06;10.70;;;6.35;;
41897;SDS011;27576;53.366;-1.498;2023-06-14T00:43:32;12.32;;;6.22;;
41897;SDS011;27576;53.366;-1.498;2023-06-14T00:45:59;10.90;;;5.72;;
41897;SDS011;27576;53.366;-1.498;2023-06-14T00:48:25;16.15;;;6.38;;
41897;SDS011;27576;53.366;-1.498;2023-06-14T00:50:50;11.88;;;5.38;;
41897;SDS011;27576;53.366;-1.498;2023-06-14T00:53:18;11.65;;;5.07;;
41897;SDS011;27576;53.366;-1.498;2023-06-14T00:55:45;10.43;;;5.32;;
41897;SDS011;27576;53.366;-1.498;2023-06-14T00:58:11;9.75;;;5.85;;
41897;SDS011;27576;53.366;-1.498;2023-06-14T01:00:36;9.93;;;6.15;;
41897;SDS011;27576;53.366;-1.498;2023-06-14T01:03:02;9.60;;;5.47;;
41897;SDS011;27576;53.366;-1.498;2023-06-14T01:05:28;13.00;;;6.70;;
41897;SDS011;27576;53.366;-1.498;2023-06-14T01:13:33;9.95;;;6.47;;
41897;SDS011;27576;53.366;-1.498;2023-06-14T01:16:00;10.18;;;6.32;;
41897;SDS011;27576;53.366;-1.498;2023-06-14T01:18:27;11.38;;;5.88;;
41897;SDS011;27576;53.366;-1.498;2023-06-14T01:20:54;11.95;;;6.65;;
41897;SDS011;27576;53.366;-1.498;2023-06-14T01:23:20;11.35;;;6.40;;
41897;SDS011;27576;53.366;-1.498;2023-06-14T01:25:47;12.23;;;6.13;;
41897;SDS011;27576;53.366;-1.498;2023-06-14T01:28:18;12.00;;;6.30;;
41897;SDS011;27576;53.366;-1.498;2023-06-14T01:30:47;9.13;;;6.18;;
41897;SDS011;27576;53.366;-1.498;2023-06-14T01:33:24;8.93;;;5.85;;
41897;SDS011;27576;53.366;-1.498;2023-06-14T01:35:52;8.65;;;5.55;;
41897;SDS011;27576;53.366;-1.498;2023-06-14T01:38:19;11.63;;;6.10;;
41897;SDS011;27576;53.366;-1.498;2023-06-14T01:40:47;9.73;;;6.15;;
41897;SDS011;27576;53.366;-1.498;2023-06-14T01:43:13;12.23;;;5.90;;
41897;SDS011;27576;53.366;-1.498;2023-06-14T01:45:40;11.60;;;6.50;;
41897;SDS011;27576;53.366;-1.498;2023-06-14T01:48:08;14.98;;;7.00;;
41897;SDS011;27576;53.366;-1.498;2023-06-14T01:50:34;10.07;;;5.93;;
41897;SDS011;27576;53.366;-1.498;2023-06-14T01:52:59;13.57;;;6.30;;
41897;SDS011;27576;53.366;-1.498;2023-06-14T01:55:25;11.07;;;6.53;;
41897;SDS011;27576;53.366;-1.498;2023-06-14T01:57:51;10.20;;;6.97;;
41897;SDS011;27576;53.366;-1.498;2023-06-14T02:00:17;9.75;;;6.65;;
41897;SDS011;27576;53.366;-1.498;2023-06-14T02:02:43;8.45;;;6.35;;
41897;SDS011;27576;53.366;-1.498;2023-06-14T02:05:09;13.00;;;6.38;;
41897;SDS011;27576;53.366;-1.498;2023-06-14T02:07:35;9.93;;;5.53;;
41897;SDS011;27576;53.366;-1.498;2023-06-14T02:10:00;9.18;;;5.75;;
41897;SDS011;27576;53.366;-1.498;2023-06-14T02:12:26;12.80;;;6.22;;
41897;SDS011;27576;53.366;-1.498;2023-06-14T02:14:51;12.30;;;5.70;;
41897;SDS011;27576;53.366;-1.498;2023-06-14T02:17:16;13.85;;;6.63;;
41897;SDS011;27576;53.366;-1.498;2023-06-14T02:19:42;7.35;;;5.78;;
41897;SDS011;27576;53.366;-1.498;2023-06-14T02:22:07;9.38;;;5.95;;
41897;SDS011;27576;53.366;-1.498;2023-06-14T02:24:33;12.40;;;6.00;;
41897;SDS011;27576;53.366;-1.498;2023-06-14T02:26:58;14.38;;;5.70;;
41897;SDS011;27576;53.366;-1.498;2023-06-14T02:29:24;8.95;;;5.03;;
41897;SDS011;27576;53.366;-1.498;2023-06-14T02:31:49;9.20;;;6.03;;
41897;SDS011;27576;53.366;-1.498;2023-06-14T02:34:15;9.23;;;5.72;;
41897;SDS011;27576;53.366;-1.498;2023-06-14T02:36:42;9.43;;;5.05;;
41897;SDS011;27576;53.366;-1.498;2023-06-14T02:39:08;9.35;;;5.75;;
41897;SDS011;27576;53.366;-1.498;2023-06-14T02:41:34;8.70;;;5.18;;
41897;SDS011;27576;53.366;-1.498;2023-06-14T02:44:00;7.50;;;5.03;;
41897;SDS011;27576;53.366;-1.498;2023-06-14T02:46:25;10.65;;;5.50;;
41897;SDS011;27576;53.366;-1.498;2023-06-14T02:48:50;8.93;;;5.63;;
41897;SDS011;27576;53.366;-1.498;2023-06-14T02:51:16;11.02;;;5.82;;
41897;SDS011;27576;53.366;-1.498;2023-06-14T02:53:41;8.48;;;5.70;;
41897;SDS011;27576;53.366;-1.498;2023-06-14T02:56:06;9.88;;;5.43;;
41897;SDS011;27576;53.366;-1.498;2023-06-14T02:58:32;8.30;;;4.68;;
41897;SDS011;27576;53.366;-1.498;2023-06-14T03:00:58;7.88;;;5.53;;
41897;SDS011;27576;53.366;-1.498;2023-06-14T03:03:27;8.57;;;5.30;;
41897;SDS011;27576;53.366;-1.498;2023-06-14T03:05:53;7.60;;;5.32;;
41897;SDS011;27576;53.366;-1.498;2023-06-14T03:08:19;10.57;;;5.40;;
41897;SDS011;27576;53.366;-1.498;2023-06-14T03:10:48;7.20;;;5.03;;
41897;SDS011;27576;53.366;-1.498;2023-06-14T03:13:14;7.15;;;5.20;;
41897;SDS011;27576;53.366;-1.498;2023-06-14T03:15:46;7.55;;;4.97;;
41897;SDS011;27576;53.366;-1.498;2023-06-14T03:18:12;8.75;;;5.22;;
41897;SDS011;27576;53.366;-1.498;2023-06-14T03:20:40;7.88;;;4.60;;
41897;SDS011;27576;53.366;-1.498;2023-06-14T03:23:06;12.23;;;4.88;;
41897;SDS011;27576;53.366;-1.498;2023-06-14T03:25:32;7.40;;;5.18;;
41897;SDS011;27576;53.366;-1.498;2023-06-14T03:28:03;9.32;;;5.22;;
41897;SDS011;27576;53.366;-1.498;2023-06-14T03:30:29;9.10;;;4.85;;
41897;SDS011;27576;53.366;-1.498;2023-06-14T03:32:55;8.23;;;5.03;;
41897;SDS011;27576;53.366;-1.498;2023-06-14T03:35:21;8.40;;;4.65;;
41897;SDS011;27576;53.366;-1.498;2023-06-14T03:37:47;6.63;;;4.90;;
41897;SDS011;27576;53.366;-1.498;2023-06-14T03:40:13;8.07;;;4.60;;
41897;SDS011;27576;53.366;-1.498;2023-06-14T03:42:40;9.80;;;5.03;;
41897;SDS011;27576;53.366;-1.498;2023-06-14T03:45:05;9.57;;;5.05;;
41897;SDS011;27576;53.366;-1.498;2023-06-14T03:47:33;4.95;;;4.45;;
41897;SDS011;27576;53.366;-1.498;2023-06-14T03:49:59;7.40;;;5.00;;
41897;SDS011;27576;53.366;-1.498;2023-06-14T03:52:26;8.75;;;5.13;;
41897;SDS011;27576;53.366;-1.498;2023-06-14T03:54:52;8.95;;;4.43;;
41897;SDS011;27576;53.366;-1.498;2023-06-14T03:57:17;5.90;;;5.18;;
41897;SDS011;27576;53.366;-1.498;2023-06-14T03:59:43;7.32;;;4.88;;
41897;SDS011;27576;53.366;-1.498;2023-06-14T04:02:08;7.97;;;5.40;;
41897;SDS011;27576;53.366;-1.498;2023-06-14T04:04:34;7.65;;;4.63;;
41897;SDS011;27576;53.366;-1.498;2023-06-14T04:07:00;8.10;;;4.75;;
41897;SDS011;27576;53.366;-1.498;2023-06-14T04:09:26;11.30;;;5.53;;
41897;SDS011;27576;53.366;-1.498;2023-06-14T04:11:51;10.50;;;4.93;;
41897;SDS011;27576;53.366;-1.498;2023-06-14T04:14:18;4.88;;;4.40;;
41897;SDS011;27576;53.366;-1.498;2023-06-14T04:16:45;6.07;;;4.53;;
41897;SDS011;27576;53.366;-1.498;2023-06-14T04:19:11;7.97;;;4.95;;
41897;SDS011;27576;53.366;-1.498;2023-06-14T04:21:36;6.78;;;4.80;;
41897;SDS011;27576;53.366;-1.498;2023-06-14T04:24:02;4.88;;;4.25;;
41897;SDS011;27576;53.366;-1.498;2023-06-14T04:26:27;9.68;;;4.93;;
41897;SDS011;27576;53.366;-1.498;2023-06-14T04:28:55;7.95;;;4.15;;
41897;SDS011;27576;53.366;-1.498;2023-06-14T04:31:22;6.97;;;4.47;;
41897;SDS011;27576;53.366;-1.498;2023-06-14T04:33:50;7.13;;;4.47;;
41897;SDS011;27576;53.366;-1.498;2023-06-14T04:36:17;7.95;;;5.28;;
41897;SDS011;27576;53.366;-1.498;2023-06-14T04:38:43;7.18;;;4.80;;
41897;SDS011;27576;53.366;-1.498;2023-06-14T04:41:11;7.00;;;4.25;;
41897;SDS011;27576;53.366;-1.498;2023-06-14T04:43:36;7.32;;;4.43;;
41897;SDS011;27576;53.366;-1.498;2023-06-14T04:46:03;5.22;;;4.07;;
41897;SDS011;27576;53.366;-1.498;2023-06-14T04:48:35;4.65;;;3.72;;
41897;SDS011;27576;53.366;-1.498;2023-06-14T04:51:06;5.68;;;4.13;;
41897;SDS011;27576;53.366;-1.498;2023-06-14T04:53:32;6.15;;;4.13;;
41897;SDS011;27576;53.366;-1.498;2023-06-14T04:55:57;6.28;;;4.70;;
41897;SDS011;27576;53.366;-1.498;2023-06-14T04:58:23;6.13;;;4.25;;
41897;SDS011;27576;53.366;-1.498;2023-06-14T05:00:48;8.95;;;4.40;;
41897;SDS011;27576;53.366;-1.498;2023-06-14T05:03:14;6.57;;;4.47;;
41897;SDS011;27576;53.366;-1.498;2023-06-14T05:05:40;7.40;;;4.57;;
41897;SDS011;27576;53.366;-1.498;2023-06-14T05:08:06;13.27;;;5.13;;
41897;SDS011;27576;53.366;-1.498;2023-06-14T05:10:32;6.97;;;4.20;;
41897;SDS011;27576;53.366;-1.498;2023-06-14T05:12:59;8.63;;;4.20;;
41897;SDS011;27576;53.366;-1.498;2023-06-14T05:15:25;5.75;;;3.92;;
41897;SDS011;27576;53.366;-1.498;2023-06-14T05:17:51;6.80;;;4.00;;
41897;SDS011;27576;53.366;-1.498;2023-06-14T05:20:20;10.82;;;4.40;;
41897;SDS011;27576;53.366;-1.498;2023-06-14T05:22:47;4.57;;;4.13;;
41897;SDS011;27576;53.366;-1.498;2023-06-14T05:25:15;6.18;;;3.53;;
41897;SDS011;27576;53.366;-1.498;2023-06-14T05:27:40;6.35;;;4.07;;
41897;SDS011;27576;53.366;-1.498;2023-06-14T05:30:07;10.60;;;4.88;;
41897;SDS011;27576;53.366;-1.498;2023-06-14T05:32:33;10.50;;;4.38;;
41897;SDS011;27576;53.366;-1.498;2023-06-14T05:34:59;7.95;;;4.30;;
41897;SDS011;27576;53.366;-1.498;2023-06-14T05:37:24;6.85;;;4.47;;
41897;SDS011;27576;53.366;-1.498;2023-06-14T05:39:50;8.40;;;4.32;;
41897;SDS011;27576;53.366;-1.498;2023-06-14T05:42:15;9.80;;;4.15;;
41897;SDS011;27576;53.366;-1.498;2023-06-14T05:44:40;6.22;;;4.68;;
41897;SDS011;27576;53.366;-1.498;2023-06-14T05:47:06;6.35;;;4.63;;
41897;SDS011;27576;53.366;-1.498;2023-06-14T05:49:31;6.47;;;4.07;;
41897;SDS011;27576;53.366;-1.498;2023-06-14T05:51:56;6.80;;;3.70;;
41897;SDS011;27576;53.366;-1.498;2023-06-14T05:54:22;6.93;;;4.40;;
41897;SDS011;27576;53.366;-1.498;2023-06-14T05:56:47;6.95;;;4.45;;
41897;SDS011;27576;53.366;-1.498;2023-06-14T05:59:12;6.82;;;4.07;;
41897;SDS011;27576;53.366;-1.498;2023-06-14T06:01:38;7.95;;;5.00;;
41897;SDS011;27576;53.366;-1.498;2023-06-14T06:04:05;10.45;;;4.35;;
41897;SDS011;27576;53.366;-1.498;2023-06-14T06:06:31;7.03;;;4.20;;
41897;SDS011;27576;53.366;-1.498;2023-06-14T06:08:57;4.40;;;3.42;;
41897;SDS011;27576;53.366;-1.498;2023-06-14T06:11:23;7.57;;;3.95;;
41897;SDS011;27576;53.366;-1.498;2023-06-14T06:13:48;5.28;;;4.00;;
41897;SDS011;27576;53.366;-1.498;2023-06-14T06:16:14;5.90;;;4.32;;
41897;SDS011;27576;53.366;-1.498;2023-06-14T06:18:40;6.25;;;4.30;;
41897;SDS011;27576;53.366;-1.498;2023-06-14T06:21:05;5.70;;;3.40;;
41897;SDS011;27576;53.366;-1.498;2023-06-14T06:23:31;7.68;;;4.40;;
41897;SDS011;27576;53.366;-1.498;2023-06-14T06:25:56;9.65;;;4.25;;
41897;SDS011;27576;53.366;-1.498;2023-06-14T06:28:21;4.47;;;3.65;;
41897;SDS011;27576;53.366;-1.498;2023-06-14T06:30:47;7.90;;;4.28;;
41897;SDS011;27576;53.366;-1.498;2023-06-14T06:33:12;7.60;;;4.18;;
41897;SDS011;27576;53.366;-1.498;2023-06-14T06:35:39;10.57;;;3.70;;
41897;SDS011;27576;53.366;-1.498;2023-06-14T06:38:04;7.57;;;4.00;;
41897;SDS011;27576;53.366;-1.498;2023-06-14T06:40:30;5.60;;;3.88;;
41897;SDS011;27576;53.366;-1.498;2023-06-14T06:42:55;5.40;;;4.00;;
41897;SDS011;27576;53.366;-1.498;2023-06-14T06:45:20;7.18;;;4.22;;
41897;SDS011;27576;53.366;-1.498;2023-06-14T06:47:48;5.95;;;3.65;;
41897;SDS011;27576;53.366;-1.498;2023-06-14T06:50:13;15.82;;;4.88;;
41897;SDS011;27576;53.366;-1.498;2023-06-14T06:52:39;6.38;;;4.25;;
41897;SDS011;27576;53.366;-1.498;2023-06-14T06:55:04;6.13;;;3.97;;
41897;SDS011;27576;53.366;-1.498;2023-06-14T06:57:30;6.32;;;3.72;;
41897;SDS011;27576;53.366;-1.498;2023-06-14T06:59:56;5.13;;;3.65;;
41897;SDS011;27576;53.366;-1.498;2023-06-14T07:02:22;6.30;;;3.63;;
41897;SDS011;27576;53.366;-1.498;2023-06-14T07:04:47;6.10;;;3.40;;
41897;SDS011;27576;53.366;-1.498;2023-06-14T07:07:12;9.18;;;4.07;;
41897;SDS011;27576;53.366;-1.498;2023-06-14T07:09:38;9.48;;;3.92;;
41897;SDS011;27576;53.366;-1.498;2023-06-14T07:12:03;7.50;;;3.83;;
41897;SDS011;27576;53.366;-1.498;2023-06-14T07:14:29;7.97;;;3.58;;
41897;SDS011;27576;53.366;-1.498;2023-06-14T07:16:55;7.10;;;3.88;;
41897;SDS011;27576;53.366;-1.498;2023-06-14T07:19:20;6.95;;;4.30;;
41897;SDS011;27576;53.366;-1.498;2023-06-14T07:21:45;5.68;;;3.88;;
41897;SDS011;27576;53.366;-1.498;2023-06-14T07:24:11;10.32;;;3.58;;
41897;SDS011;27576;53.366;-1.498;2023-06-14T07:26:36;4.88;;;3.17;;
41897;SDS011;27576;53.366;-1.498;2023-06-14T07:29:02;6.85;;;4.00;;
41897;SDS011;27576;53.366;-1.498;2023-06-14T07:31:27;10.43;;;4.03;;
41897;SDS011;27576;53.366;-1.498;2023-06-14T07:33:53;10.23;;;4.03;;
41897;SDS011;27576;53.366;-1.498;2023-06-14T07:36:18;9.35;;;4.38;;
41897;SDS011;27576;53.366;-1.498;2023-06-14T07:38:44;9.05;;;3.97;;
41897;SDS011;27576;53.366;-1.498;2023-06-14T07:41:10;7.70;;;3.92;;
41897;SDS011;27576;53.366;-1.498;2023-06-14T07:43:35;12.05;;;4.75;;
41897;SDS011;27576;53.366;-1.498;2023-06-14T07:46:01;10.18;;;4.55;;
41897;SDS011;27576;53.366;-1.498;2023-06-14T07:48:27;8.02;;;4.50;;
41897;SDS011;27576;53.366;-1.498;2023-06-14T07:50:52;5.35;;;3.47;;
41897;SDS011;27576;53.366;-1.498;2023-06-14T07:53:17;9.55;;;3.88;;
41897;SDS011;27576;53.366;-1.498;2023-06-14T07:55:43;12.13;;;5.00;;
41897;SDS011;27576;53.366;-1.498;2023-06-14T07:58:08;12.43;;;4.78;;
41897;SDS011;27576;53.366;-1.498;2023-06-14T08:00:34;10.20;;;4.38;;
41897;SDS011;27576;53.366;-1.498;2023-06-14T08:02:59;6.93;;;4.03;;
41897;SDS011;27576;53.366;-1.498;2023-06-14T08:05:25;9.77;;;4.30;;
41897;SDS011;27576;53.366;-1.498;2023-06-14T08:07:51;10.70;;;5.25;;
41897;SDS011;27576;53.366;-1.498;2023-06-14T08:10:16;8.98;;;4.20;;
41897;SDS011;27576;53.366;-1.498;2023-06-14T08:12:42;8.57;;;4.45;;
41897;SDS011;27576;53.366;-1.498;2023-06-14T08:15:07;10.00;;;4.18;;
41897;SDS011;27576;53.366;-1.498;2023-06-14T08:17:34;7.22;;;3.85;;
41897;SDS011;27576;53.366;-1.498;2023-06-14T08:19:59;10.00;;;4.57;;
41897;SDS011;27576;53.366;-1.498;2023-06-14T08:22:24;16.40;;;4.93;;
41897;SDS011;27576;53.366;-1.498;2023-06-14T08:24:51;10.20;;;4.20;;
41897;SDS011;27576;53.366;-1.498;2023-06-14T08:27:19;12.93;;;3.53;;
41897;SDS011;27576;53.366;-1.498;2023-06-14T08:29:44;9.65;;;4.25;;
41897;SDS011;27576;53.366;-1.498;2023-06-14T08:32:09;6.55;;;3.67;;
41897;SDS011;27576;53.366;-1.498;2023-06-14T08:34:35;12.77;;;4.40;;
41897;SDS011;27576;53.366;-1.498;2023-06-14T08:37:00;12.95;;;4.50;;
41897;SDS011;27576;53.366;-1.498;2023-06-14T08:39:26;12.10;;;3.88;;
41897;SDS011;27576;53.366;-1.498;2023-06-14T08:41:51;6.05;;;4.15;;
41897;SDS011;27576;53.366;-1.498;2023-06-14T08:44:17;9.57;;;4.00;;
41897;SDS011;27576;53.366;-1.498;2023-06-14T08:46:43;7.30;;;3.80;;
41897;SDS011;27576;53.366;-1.498;2023-06-14T08:49:10;8.63;;;3.78;;
41897;SDS011;27576;53.366;-1.498;2023-06-14T08:51:37;13.90;;;4.10;;
41897;SDS011;27576;53.366;-1.498;2023-06-14T08:54:05;10.63;;;3.88;;
41897;SDS011;27576;53.366;-1.498;2023-06-14T08:56:31;10.13;;;3.80;;
41897;SDS011;27576;53.366;-1.498;2023-06-14T08:58:59;6.55;;;3.58;;
41897;SDS011;27576;53.366;-1.498;2023-06-14T09:01:28;12.38;;;4.20;;
41897;SDS011;27576;53.366;-1.498;2023-06-14T09:03:56;11.60;;;3.63;;
41897;SDS011;27576;53.366;-1.498;2023-06-14T09:06:22;17.52;;;4.15;;
41897;SDS011;27576;53.366;-1.498;2023-06-14T09:08:48;9.50;;;4.20;;
41897;SDS011;27576;53.366;-1.498;2023-06-14T09:11:14;11.60;;;4.35;;
41897;SDS011;27576;53.366;-1.498;2023-06-14T09:13:43;12.98;;;4.55;;
41897;SDS011;27576;53.366;-1.498;2023-06-14T09:16:09;7.95;;;3.85;;
41897;SDS011;27576;53.366;-1.498;2023-06-14T09:18:35;10.27;;;3.90;;
41897;SDS011;27576;53.366;-1.498;2023-06-14T09:21:01;11.75;;;3.85;;
41897;SDS011;27576;53.366;-1.498;2023-06-14T09:23:26;10.55;;;3.83;;
41897;SDS011;27576;53.366;-1.498;2023-06-14T09:25:52;9.70;;;3.38;;
41897;SDS011;27576;53.366;-1.498;2023-06-14T09:28:17;17.80;;;3.97;;
41897;SDS011;27576;53.366;-1.498;2023-06-14T09:30:42;10.55;;;3.97;;
41897;SDS011;27576;53.366;-1.498;2023-06-14T09:33:08;7.47;;;3.20;;
41897;SDS011;27576;53.366;-1.498;2023-06-14T09:35:33;9.32;;;3.75;;
41897;SDS011;27576;53.366;-1.498;2023-06-14T09:37:59;12.70;;;3.90;;
41897;SDS011;27576;53.366;-1.498;2023-06-14T09:40:25;9.82;;;4.00;;
41897;SDS011;27576;53.366;-1.498;2023-06-14T09:42:51;10.93;;;4.00;;
41897;SDS011;27576;53.366;-1.498;2023-06-14T09:45:17;11.82;;;3.47;;
41897;SDS011;27576;53.366;-1.498;2023-06-14T09:47:47;10.60;;;3.85;;
41897;SDS011;27576;53.366;-1.498;2023-06-14T09:50:14;12.80;;;3.80;;
41897;SDS011;27576;53.366;-1.498;2023-06-14T09:52:39;12.88;;;3.85;;
41897;SDS011;27576;53.366;-1.498;2023-06-14T09:55:10;19.17;;;4.47;;
41897;SDS011;27576;53.366;-1.498;2023-06-14T09:57:38;11.55;;;3.67;;
41897;SDS011;27576;53.366;-1.498;2023-06-14T10:00:09;6.45;;;3.28;;
41897;SDS011;27576;53.366;-1.498;2023-06-14T10:02:36;4.35;;;2.40;;
41897;SDS011;27576;53.366;-1.498;2023-06-14T10:07:32;7.40;;;2.67;;
41897;SDS011;27576;53.366;-1.498;2023-06-14T10:10:04;8.40;;;2.60;;
41897;SDS011;27576;53.366;-1.498;2023-06-14T10:12:30;6.78;;;2.95;;
41897;SDS011;27576;53.366;-1.498;2023-06-14T10:14:56;10.65;;;4.15;;
41897;SDS011;27576;53.366;-1.498;2023-06-14T10:22:47;4.80;;;2.75;;
41897;SDS011;27576;53.366;-1.498;2023-06-14T10:25:28;13.52;;;5.05;;
41897;SDS011;27576;53.366;-1.498;2023-06-14T10:30:38;8.85;;;2.67;;
41897;SDS011;27576;53.366;-1.498;2023-06-14T10:33:04;5.38;;;2.50;;
41897;SDS011;27576;53.366;-1.498;2023-06-14T10:35:35;7.43;;;2.65;;
41897;SDS011;27576;53.366;-1.498;2023-06-14T10:38:11;6.18;;;3.08;;
41897;SDS011;27576;53.366;-1.498;2023-06-14T10:40:37;4.75;;;2.55;;
41897;SDS011;27576;53.366;-1.498;2023-06-14T10:43:23;9.02;;;2.60;;
41897;SDS011;27576;53.366;-1.498;2023-06-14T10:46:11;4.05;;;2.42;;
41897;SDS011;27576;53.366;-1.498;2023-06-14T10:48:43;11.50;;;3.13;;
41897;SDS011;27576;53.366;-1.498;2023-06-14T10:51:16;5.30;;;2.30;;
41897;SDS011;27576;53.366;-1.498;2023-06-14T10:53:45;5.90;;;2.60;;
41897;SDS011;27576;53.366;-1.498;2023-06-14T10:56:30;7.18;;;2.67;;
41897;SDS011;27576;53.366;-1.498;2023-06-14T10:58:57;5.38;;;2.60;;
41897;SDS011;27576;53.366;-1.498;2023-06-14T11:01:36;5.22;;;2.70;;
41897;SDS011;27576;53.366;-1.498;2023-06-14T11:04:10;7.25;;;3.10;;
41897;SDS011;27576;53.366;-1.498;2023-06-14T11:06:45;5.13;;;2.67;;
41897;SDS011;27576;53.366;-1.498;2023-06-14T11:09:23;5.25;;;2.63;;
41897;SDS011;27576;53.366;-1.498;2023-06-14T11:11:59;6.82;;;2.72;;
41897;SDS011;27576;53.366;-1.498;2023-06-14T11:14:29;5.75;;;2.63;;
41897;SDS011;27576;53.366;-1.498;2023-06-14T11:16:56;3.35;;;2.53;;
41897;SDS011;27576;53.366;-1.498;2023-06-14T11:19:21;5.40;;;2.20;;
41897;SDS011;27576;53.366;-1.498;2023-06-14T11:21:47;7.45;;;2.50;;
41897;SDS011;27576;53.366;-1.498;2023-06-14T11:24:13;4.43;;;2.70;;
41897;SDS011;27576;53.366;-1.498;2023-06-14T11:26:39;7.97;;;2.70;;
41897;SDS011;27576;53.366;-1.498;2023-06-14T11:29:05;8.32;;;2.70;;
41897;SDS011;27576;53.366;-1.498;2023-06-14T11:31:31;8.32;;;2.53;;
41897;SDS011;27576;53.366;-1.498;2023-06-14T11:33:57;4.32;;;2.30;;
41897;SDS011;27576;53.366;-1.498;2023-06-14T11:36:30;7.72;;;3.00;;
41897;SDS011;27576;53.366;-1.498;2023-06-14T11:39:03;5.53;;;2.55;;
41897;SDS011;27576;53.366;-1.498;2023-06-14T11:41:37;3.33;;;2.58;;
41897;SDS011;27576;53.366;-1.498;2023-06-14T11:44:03;3.72;;;2.60;;
41897;SDS011;27576;53.366;-1.498;2023-06-14T11:46:28;3.65;;;2.30;;
41897;SDS011;27576;53.366;-1.498;2023-06-14T11:48:54;5.85;;;2.88;;
41897;SDS011;27576;53.366;-1.498;2023-06-14T11:51:19;5.00;;;2.90;;
41897;SDS011;27576;53.366;-1.498;2023-06-14T11:53:45;9.00;;;3.08;;
41897;SDS011;27576;53.366;-1.498;2023-06-14T11:56:11;4.78;;;2.40;;
41897;SDS011;27576;53.366;-1.498;2023-06-14T11:58:37;8.40;;;2.47;;
41897;SDS011;27576;53.366;-1.498;2023-06-14T12:01:02;7.97;;;2.63;;
41897;SDS011;27576;53.366;-1.498;2023-06-14T12:03:28;4.70;;;2.45;;
41897;SDS011;27576;53.366;-1.498;2023-06-14T12:06:06;4.75;;;2.28;;
41897;SDS011;27576;53.366;-1.498;2023-06-14T12:08:34;8.85;;;2.55;;
41897;SDS011;27576;53.366;-1.498;2023-06-14T12:11:06;3.92;;;2.47;;
41897;SDS011;27576;53.366;-1.498;2023-06-14T12:13:37;7.65;;;2.65;;
41897;SDS011;27576;53.366;-1.498;2023-06-14T12:16:06;4.38;;;2.60;;
41897;SDS011;27576;53.366;-1.498;2023-06-14T12:18:33;6.28;;;2.67;;
41897;SDS011;27576;53.366;-1.498;2023-06-14T12:20:59;5.82;;;2.97;;
41897;SDS011;27576;53.366;-1.498;2023-06-14T12:23:46;4.55;;;2.58;;
41897;SDS011;27576;53.366;-1.498;2023-06-14T12:26:13;6.70;;;2.60;;
41897;SDS011;27576;53.366;-1.498;2023-06-14T12:28:40;4.82;;;2.50;;
41897;SDS011;27576;53.366;-1.498;2023-06-14T12:31:07;3.50;;;2.22;;
41897;SDS011;27576;53.366;-1.498;2023-06-14T12:33:33;4.45;;;2.47;;
41897;SDS011;27576;53.366;-1.498;2023-06-14T12:35:58;3.08;;;1.83;;
41897;SDS011;27576;53.366;-1.498;2023-06-14T12:38:24;3.20;;;2.22;;
41897;SDS011;27576;53.366;-1.498;2023-06-14T12:40:49;5.15;;;2.55;;
41897;SDS011;27576;53.366;-1.498;2023-06-14T12:43:15;9.43;;;2.88;;
41897;SDS011;27576;53.366;-1.498;2023-06-14T12:45:40;6.65;;;2.70;;
41897;SDS011;27576;53.366;-1.498;2023-06-14T12:48:06;3.67;;;2.42;;
41897;SDS011;27576;53.366;-1.498;2023-06-14T12:50:33;6.22;;;2.25;;
41897;SDS011;27576;53.366;-1.498;2023-06-14T12:52:58;8.43;;;2.45;;
41897;SDS011;27576;53.366;-1.498;2023-06-14T12:55:24;6.63;;;2.55;;
41897;SDS011;27576;53.366;-1.498;2023-06-14T12:57:49;7.20;;;2.50;;
41897;SDS011;27576;53.366;-1.498;2023-06-14T13:00:16;5.45;;;2.13;;
41897;SDS011;27576;53.366;-1.498;2023-06-14T13:02:42;6.00;;;2.67;;
41897;SDS011;27576;53.366;-1.498;2023-06-14T13:05:09;6.07;;;2.97;;
41897;SDS011;27576;53.366;-1.498;2023-06-14T13:07:34;7.53;;;2.83;;
41897;SDS011;27576;53.366;-1.498;2023-06-14T13:10:00;3.92;;;2.20;;
41897;SDS011;27576;53.366;-1.498;2023-06-14T13:12:25;3.92;;;2.50;;
41897;SDS011;27576;53.366;-1.498;2023-06-14T13:14:50;4.13;;;2.17;;
41897;SDS011;27576;53.366;-1.498;2023-06-14T13:17:16;4.32;;;2.42;;
41897;SDS011;27576;53.366;-1.498;2023-06-14T13:19:41;4.35;;;2.58;;
41897;SDS011;27576;53.366;-1.498;2023-06-14T13:22:07;9.35;;;2.63;;
41897;SDS011;27576;53.366;-1.498;2023-06-14T13:24:33;5.90;;;2.17;;
41897;SDS011;27576;53.366;-1.498;2023-06-14T13:26:59;6.05;;;2.42;;
41897;SDS011;27576;53.366;-1.498;2023-06-14T13:29:25;4.88;;;2.17;;
41897;SDS011;27576;53.366;-1.498;2023-06-14T13:31:51;7.30;;;2.67;;
41897;SDS011;27576;53.366;-1.498;2023-06-14T13:34:16;8.15;;;2.20;;
41897;SDS011;27576;53.366;-1.498;2023-06-14T13:36:42;6.45;;;2.35;;
41897;SDS011;27576;53.366;-1.498;2023-06-14T13:39:07;2.35;;;1.77;;
41897;SDS011;27576;53.366;-1.498;2023-06-14T13:41:33;5.95;;;2.08;;
41897;SDS011;27576;53.366;-1.498;2023-06-14T13:44:00;7.70;;;2.55;;
41897;SDS011;27576;53.366;-1.498;2023-06-14T13:46:26;3.65;;;1.98;;
41897;SDS011;27576;53.366;-1.498;2023-06-14T13:48:51;5.75;;;1.98;;
41897;SDS011;27576;53.366;-1.498;2023-06-14T13:51:17;3.30;;;1.63;;
41897;SDS011;27576;53.366;-1.498;2023-06-14T13:53:53;7.07;;;2.20;;
41897;SDS011;27576;53.366;-1.498;2023-06-14T13:56:20;4.30;;;1.73;;
41897;SDS011;27576;53.366;-1.498;2023-06-14T13:58:47;5.55;;;1.98;;
41897;SDS011;27576;53.366;-1.498;2023-06-14T14:01:12;4.38;;;1.67;;
41897;SDS011;27576;53.366;-1.498;2023-06-14T14:03:38;6.50;;;2.05;;
41897;SDS011;27576;53.366;-1.498;2023-06-14T14:06:03;7.03;;;1.73;;
41897;SDS011;27576;53.366;-1.498;2023-06-14T14:08:30;3.53;;;2.10;;
41897;SDS011;27576;53.366;-1.498;2023-06-14T14:10:56;7.35;;;2.28;;
41897;SDS011;27576;53.366;-1.498;2023-06-14T14:13:22;5.25;;;2.00;;
41897;SDS011;27576;53.366;-1.498;2023-06-14T14:15:47;6.38;;;2.38;;
41897;SDS011;27576;53.366;-1.498;2023-06-14T14:18:14;5.60;;;1.60;;
41897;SDS011;27576;53.366;-1.498;2023-06-14T14:20:40;2.38;;;1.77;;
41897;SDS011;27576;53.366;-1.498;2023-06-14T14:23:05;5.32;;;1.63;;
41897;SDS011;27576;53.366;-1.498;2023-06-14T14:25:31;3.78;;;1.55;;
41897;SDS011;27576;53.366;-1.498;2023-06-14T14:27:56;4.55;;;2.05;;
41897;SDS011;27576;53.366;-1.498;2023-06-14T14:30:22;7.45;;;2.15;;
41897;SDS011;27576;53.366;-1.498;2023-06-14T14:32:49;3.05;;;1.70;;
41897;SDS011;27576;53.366;-1.498;2023-06-14T14:35:15;4.65;;;1.58;;
41897;SDS011;27576;53.366;-1.498;2023-06-14T14:37:42;2.95;;;1.70;;
41897;SDS011;27576;53.366;-1.498;2023-06-14T14:40:08;8.30;;;2.20;;
41897;SDS011;27576;53.366;-1.498;2023-06-14T14:42:34;5.35;;;1.98;;
41897;SDS011;27576;53.366;-1.498;2023-06-14T14:44:59;2.88;;;1.50;;